Time;durP1;ratioP1;P1;durP2;ratioP2;P2;SDS_P1;SDS_P2;PMS_P1;PMS_P2;Temp;Humidity;BMP_temperature;BMP_pressure;BME280_temperature;BME280_humidity;BME280_pressure;Samples;Min_cycle;Max_cycle;Signal;HPM_P1;HPM_P2
2022/06/25 00:02:17;;;;;;;;;;;;;;;20.82;67.48;100172.34;4974786;28;2661;-96
2022/06/25 00:07:27;;;;;;;;;;;;;;;20.79;67.59;100177.56;4969751;28;2691;-96
2022/06/25 00:09:54;;;;;;;;;;;;;;;20.80;67.58;100181.97;4973957;28;2703;-96
2022/06/25 00:12:32;;;;;;;;;;;;;;;20.79;67.38;100188.53;4975109;28;2380;-96
2022/06/25 00:14:59;;;;;;;;;;;;;;;20.78;67.34;100186.91;4968056;28;2306;-96
2022/06/25 00:17:26;;;;;;;;;;;;;;;20.77;67.25;100194.31;4973295;28;2216;-96
2022/06/25 00:19:52;;;;;;;;;;;;;;;20.76;67.47;100186.38;4964382;28;1396;-96
2022/06/25 00:22:18;;;;;;;;;;;;;;;20.75;67.33;100184.75;4973642;28;1298;-96
2022/06/25 00:24:45;;;;;;;;;;;;;;;20.75;67.61;100184.75;4976311;28;2362;-96
2022/06/25 00:27:11;;;;;;;;;;;;;;;20.73;67.38;100182.31;4965217;28;1166;-96
2022/06/25 00:29:38;;;;;;;;;;;;;;;20.73;67.21;100192.44;4975576;28;3822;-96
2022/06/25 00:32:04;;;;;;;;;;;;;;;20.72;67.20;100193.56;4978054;28;1181;-96
2022/06/25 00:34:31;;;;;;;;;;;;;;;20.71;67.50;100192.75;4976719;28;2339;-96
2022/06/25 00:36:57;;;;;;;;;;;;;;;20.71;67.35;100189.22;4982988;28;2640;-96
2022/06/25 00:39:24;;;;;;;;;;;;;;;20.69;67.44;100186.75;4983621;28;2449;-96
2022/06/25 00:41:50;;;;;;;;;;;;;;;20.69;67.10;100192.22;4971015;28;2474;-96
2022/06/25 00:44:17;;;;;;;;;;;;;;;20.68;67.39;100181.56;4970088;28;2637;-96
2022/06/25 00:46:43;;;;;;;;;;;;;;;20.66;67.40;100179.13;4972133;28;2582;-96
2022/06/25 00:49:10;;;;;;;;;;;;;;;20.66;67.28;100183.81;4986386;28;2370;-96
2022/06/25 00:51:36;;;;;;;;;;;;;;;20.65;67.36;100183.00;4968735;28;2364;-96
2022/06/25 00:54:05;;;;;;;;;;;;;;;20.64;67.29;100182.16;4988864;28;2267;-96
2022/06/25 00:56:31;;;;;;;;;;;;;;;20.63;67.34;100179.72;4984084;28;2631;-96
2022/06/25 00:58:58;;;;;;;;;;;;;;;20.62;66.89;100191.78;4966323;28;2926;-96
2022/06/25 01:01:24;;;;;;;;;;;;;;;20.62;67.03;100183.59;4981803;28;2656;-96
2022/06/25 01:03:50;;;;;;;;;;;;;;;20.61;67.31;100184.69;4982442;28;2358;-96
2022/06/25 01:06:17;;;;;;;;;;;;;;;20.60;67.14;100189.34;4983890;28;2342;-96
2022/06/25 01:08:43;;;;;;;;;;;;;;;20.59;67.13;100189.66;4999966;28;2197;-96
2022/06/25 01:11:11;;;;;;;;;;;;;;;20.58;67.14;100191.53;4983088;28;1186;-96
2022/06/25 01:13:37;;;;;;;;;;;;;;;20.58;67.00;100186.06;4975428;28;2371;-96
2022/06/25 01:16:04;;;;;;;;;;;;;;;20.57;67.00;100187.19;4972742;28;2344;-96
2022/06/25 01:18:30;;;;;;;;;;;;;;;20.56;66.99;100187.47;4988151;28;2421;-96
2022/06/25 01:20:57;;;;;;;;;;;;;;;20.54;67.21;100190.53;4988021;28;2409;-96
2022/06/25 01:23:23;;;;;;;;;;;;;;;20.54;66.90;100179.59;4984056;28;4234;-96
2022/06/25 01:25:49;;;;;;;;;;;;;;;20.54;66.87;100192.44;4970982;28;2772;-96
2022/06/25 01:28:16;;;;;;;;;;;;;;;20.51;66.91;100185.63;4982260;28;2513;-96
2022/06/25 01:30:42;;;;;;;;;;;;;;;20.51;66.70;100191.09;4967559;28;2479;-96
2022/06/25 01:33:08;;;;;;;;;;;;;;;20.51;67.05;100196.56;4984658;28;2476;-96
2022/06/25 01:35:35;;;;;;;;;;;;;;;20.50;67.00;100199.56;4973082;28;2418;-96
2022/06/25 01:38:01;;;;;;;;;;;;;;;20.50;66.82;100196.84;4970710;28;2201;-96
2022/06/25 01:40:28;;;;;;;;;;;;;;;20.48;67.02;100199.06;4963450;28;4457;-96
2022/06/25 01:43:00;;;;;;;;;;;;;;;20.48;66.97;100202.63;4973397;28;2356;-96
2022/06/25 01:45:27;;;;;;;;;;;;;;;20.47;66.72;100208.38;4973404;28;2474;-96
2022/06/25 01:47:53;;;;;;;;;;;;;;;20.46;66.75;100210.28;4967620;28;2327;-96
2022/06/25 01:50:19;;;;;;;;;;;;;;;20.45;66.67;100208.66;4968417;28;2366;-96
2022/06/25 01:52:46;;;;;;;;;;;;;;;20.44;66.79;100209.75;4967652;28;2369;-96
2022/06/25 01:55:13;;;;;;;;;;;;;;;20.42;66.73;100204.59;4970084;28;2402;-96
2022/06/25 01:57:39;;;;;;;;;;;;;;;20.41;66.94;100208.44;4972479;28;2368;-96
2022/06/25 02:00:05;;;;;;;;;;;;;;;20.42;66.74;100209.25;4970379;28;2478;-96
2022/06/25 02:02:32;;;;;;;;;;;;;;;20.40;66.65;100215.00;4964523;28;2456;-96
2022/06/25 02:04:58;;;;;;;;;;;;;;;20.40;66.57;100211.47;4967358;28;2441;-96
2022/06/25 02:07:24;;;;;;;;;;;;;;;20.38;66.75;100206.31;4968860;28;2747;-96
2022/06/25 02:09:51;;;;;;;;;;;;;;;20.37;66.67;100210.13;4969638;28;2316;-96
2022/06/25 02:12:18;;;;;;;;;;;;;;;20.37;66.73;100212.84;4981377;28;2462;-96
2022/06/25 02:14:45;;;;;;;;;;;;;;;20.36;66.67;100226.84;4967960;28;2430;-96
2022/06/25 02:17:11;;;;;;;;;;;;;;;20.35;66.48;100215.09;4967119;28;2440;-96
2022/06/25 02:19:38;;;;;;;;;;;;;;;20.34;66.42;100204.44;4966236;28;2343;-96
2022/06/25 02:22:04;;;;;;;;;;;;;;;20.33;66.59;100208.28;4965817;28;2663;-96
2022/06/25 02:24:31;;;;;;;;;;;;;;;20.32;66.51;100204.72;4967444;28;2481;-96
2022/06/25 02:26:57;;;;;;;;;;;;;;;20.32;66.59;100201.16;4967686;28;2652;-96
2022/06/25 02:29:24;;;;;;;;;;;;;;;20.31;66.45;100210.50;4964345;28;3771;-96
2022/06/25 02:31:50;;;;;;;;;;;;;;;20.30;66.58;100204.22;4969437;28;3969;-96
2022/06/25 02:34:16;;;;;;;;;;;;;;;20.29;66.42;100205.31;4966551;28;2384;-95
2022/06/25 02:36:43;;;;;;;;;;;;;;;20.27;66.63;100204.81;4973267;28;2566;-96
2022/06/25 02:39:09;;;;;;;;;;;;;;;20.28;66.22;100205.63;4976235;28;2165;-96
2022/06/25 02:41:35;;;;;;;;;;;;;;;20.27;66.46;100209.47;4974998;28;2360;-96
2022/06/25 02:44:02;;;;;;;;;;;;;;;20.26;66.48;100205.09;4975049;28;2288;-96
2022/06/25 02:46:28;;;;;;;;;;;;;;;20.27;66.44;100209.47;4971681;28;1299;-96
2022/06/25 02:48:55;;;;;;;;;;;;;;;20.25;66.38;100217.13;4976102;28;2248;-96
2022/06/25 02:51:21;;;;;;;;;;;;;;;20.24;66.40;100219.06;4967060;28;2425;-96
2022/06/25 02:53:47;;;;;;;;;;;;;;;20.23;66.07;100211.13;4970550;28;2447;-96
2022/06/25 02:58:58;;;;;;;;;;;;;;;20.21;66.25;100222.38;4970048;28;2607;-96
2022/06/25 03:01:24;;;;;;;;;;;;;;;20.20;66.32;100212.53;4966830;28;3540;-96
2022/06/25 03:03:51;;;;;;;;;;;;;;;20.19;66.14;100221.84;4965906;28;2330;-95
2022/06/25 03:06:18;;;;;;;;;;;;;;;20.19;66.16;100216.38;4966547;28;2707;-96
2022/06/25 03:08:44;;;;;;;;;;;;;;;20.17;66.02;100222.13;4969529;28;2275;-96
2022/06/25 03:11:10;;;;;;;;;;;;;;;20.17;66.08;100219.38;4969988;28;2571;-96
2022/06/25 03:13:37;;;;;;;;;;;;;;;20.17;66.14;100213.13;4967832;28;2399;-96
2022/06/25 03:16:03;;;;;;;;;;;;;;;20.15;66.27;100221.63;4974437;28;2333;-96
2022/06/25 03:18:30;;;;;;;;;;;;;;;20.13;66.05;100212.88;4967803;28;2415;-96
2022/06/25 03:20:56;;;;;;;;;;;;;;;20.14;65.93;100224.63;4969667;28;2597;-96
2022/06/25 03:23:23;;;;;;;;;;;;;;;20.13;66.00;100221.09;4959929;28;4356;-96
2022/06/25 03:25:49;;;;;;;;;;;;;;;20.12;65.99;100227.66;4967647;28;2447;-96
2022/06/25 03:28:16;;;;;;;;;;;;;;;20.11;66.11;100234.22;4978130;28;2323;-96
2022/06/25 03:30:42;;;;;;;;;;;;;;;20.10;66.13;100221.69;4983419;28;2448;-96
2022/06/25 03:33:08;;;;;;;;;;;;;;;20.10;66.07;100220.88;4974642;28;2289;-96
2022/06/25 03:35:35;;;;;;;;;;;;;;;20.08;66.07;100220.34;4978590;28;1910;-96
2022/06/25 03:38:01;;;;;;;;;;;;;;;20.07;65.94;100216.78;4974567;28;2345;-96
2022/06/25 03:40:28;;;;;;;;;;;;;;;20.08;65.77;100214.88;4971901;28;2347;-96
2022/06/25 03:42:54;;;;;;;;;;;;;;;20.07;65.75;100208.59;4983502;28;3392;-96
2022/06/25 03:45:20;;;;;;;;;;;;;;;20.05;65.95;100204.50;4972115;28;2661;-96
2022/06/25 03:47:50;;;;;;;;;;;;;;;20.05;66.18;100197.13;4974595;28;2271;-96
2022/06/25 03:50:16;;;;;;;;;;;;;;;20.05;65.95;100201.78;4993918;28;2381;-96
2022/06/25 03:52:42;;;;;;;;;;;;;;;20.04;65.88;100197.44;4979242;28;2036;-96
2022/06/25 03:55:09;;;;;;;;;;;;;;;20.02;65.95;100199.63;4979558;28;1977;-96
2022/06/25 03:57:35;;;;;;;;;;;;;;;20.01;65.86;100201.56;4978808;28;2254;-96
2022/06/25 04:00:02;;;;;;;;;;;;;;;20.02;66.04;100200.44;4983727;28;2336;-96
2022/06/25 04:02:28;;;;;;;;;;;;;;;20.00;65.74;100197.22;4988254;28;2394;-96
2022/06/25 04:04:54;;;;;;;;;;;;;;;20.00;65.90;100201.84;4972695;28;2381;-96
2022/06/25 04:07:21;;;;;;;;;;;;;;;19.99;65.71;100200.22;4975866;28;1295;-96
2022/06/25 04:09:47;;;;;;;;;;;;;;;19.98;65.97;100201.34;4977000;28;2293;-95
2022/06/25 04:12:14;;;;;;;;;;;;;;;19.98;65.99;100209.53;4971884;28;2052;-96
2022/06/25 04:14:40;;;;;;;;;;;;;;;19.96;65.93;100205.16;4975118;28;2389;-96
2022/06/25 04:17:07;;;;;;;;;;;;;;;19.96;65.83;100196.13;4974904;28;2308;-96
2022/06/25 04:19:39;;;;;;;;;;;;;;;19.95;65.90;100208.19;4974820;28;2285;-96
2022/06/25 04:22:06;;;;;;;;;;;;;;;19.95;65.90;100210.91;4972569;28;1347;-96
2022/06/25 04:24:32;;;;;;;;;;;;;;;19.93;65.84;100211.19;4978651;28;1370;-96
2022/06/25 04:26:59;;;;;;;;;;;;;;;19.93;65.87;100200.25;4975124;28;2350;-96
2022/06/25 04:29:24;;;;;;;;;;;;;;;19.92;65.54;100209.56;4978119;28;2212;-96
2022/06/25 04:31:50;;;;;;;;;;;;;;;19.94;65.83;100215.56;4983941;28;2452;-96
2022/06/25 04:34:17;;;;;;;;;;;;;;;19.92;65.75;100209.56;4993336;28;2198;-96
2022/06/25 04:36:43;;;;;;;;;;;;;;;19.90;65.57;100214.50;4982913;28;2243;-96
2022/06/25 04:39:10;;;;;;;;;;;;;;;19.90;65.62;100219.16;4994604;28;1169;-96
2022/06/25 04:41:36;;;;;;;;;;;;;;;19.90;65.76;100222.72;4973748;28;3828;-96
2022/06/25 04:44:04;;;;;;;;;;;;;;;19.90;65.49;100227.38;4978235;28;1204;-96
2022/06/25 04:46:30;;;;;;;;;;;;;;;19.89;65.53;100223.00;4975534;28;2383;-96
2022/06/25 04:48:57;;;;;;;;;;;;;;;19.88;65.52;100221.38;4980257;28;2111;-96
2022/06/25 04:51:23;;;;;;;;;;;;;;;19.87;65.73;100220.56;4976970;28;2256;-96
2022/06/25 04:53:59;;;;;;;;;;;;;;;19.87;65.33;100223.28;4971773;28;3664;-95
2022/06/25 04:56:25;;;;;;;;;;;;;;;19.85;65.70;100220.03;4970841;28;2363;-96
2022/06/25 04:58:51;;;;;;;;;;;;;;;19.87;65.23;100234.22;4997032;28;2410;-95
2022/06/25 05:01:18;;;;;;;;;;;;;;;19.86;65.58;100234.53;4978669;28;2302;-96
2022/06/25 05:03:44;;;;;;;;;;;;;;;19.85;65.32;100244.63;4980256;28;2235;-96
2022/06/25 05:06:10;;;;;;;;;;;;;;;19.86;65.50;100246.25;4974044;28;2303;-95
2022/06/25 05:08:37;;;;;;;;;;;;;;;19.85;65.31;100239.16;4978260;28;2496;-96
2022/06/25 05:11:03;;;;;;;;;;;;;;;19.85;65.56;100244.63;4980805;28;2152;-96
2022/06/25 05:13:30;;;;;;;;;;;;;;;19.85;65.30;100257.47;4976232;28;3753;-96
2022/06/25 05:15:56;;;;;;;;;;;;;;;19.84;65.36;100256.66;4980581;28;2553;-95
2022/06/25 05:18:22;;;;;;;;;;;;;;;19.84;65.28;100253.94;4981879;28;1394;-96
2022/06/25 05:20:49;;;;;;;;;;;;;;;19.85;65.27;100257.47;4978753;28;2422;-96
2022/06/25 05:23:15;;;;;;;;;;;;;;;19.83;65.53;100246.84;4977602;28;4208;-96
2022/06/25 05:25:42;;;;;;;;;;;;;;;19.83;65.20;100246.84;4979369;28;5371;-96
2022/06/25 05:28:08;;;;;;;;;;;;;;;19.83;65.31;100238.66;4981521;28;1225;-95
2022/06/25 05:30:34;;;;;;;;;;;;;;;19.84;65.43;100244.91;4979494;28;2317;-96
2022/06/25 05:33:01;;;;;;;;;;;;;;;19.83;65.20;100240.56;4978197;28;1215;-96
2022/06/25 05:35:27;;;;;;;;;;;;;;;19.82;65.38;100233.44;4970278;28;2671;-96
2022/06/25 05:37:54;;;;;;;;;;;;;;;19.83;65.24;100243.31;4977039;28;2103;-96
2022/06/25 05:40:20;;;;;;;;;;;;;;;19.82;65.33;100236.19;4974433;28;2126;-95
2022/06/25 05:42:47;;;;;;;;;;;;;;;19.82;65.27;100236.19;4980409;28;2318;-96
2022/06/25 05:45:13;;;;;;;;;;;;;;;19.83;65.35;100235.09;4989759;28;3717;-96
2022/06/25 05:47:39;;;;;;;;;;;;;;;19.83;65.07;100240.56;4979785;28;2353;-96
2022/06/25 05:50:06;;;;;;;;;;;;;;;19.82;65.40;100245.19;4977518;28;2139;-96
2022/06/25 05:52:32;;;;;;;;;;;;;;;19.82;65.28;100245.19;4974744;28;1262;-96
2022/06/25 05:54:59;;;;;;;;;;;;;;;19.83;64.96;100255.03;4981136;28;1239;-95
2022/06/25 05:57:25;;;;;;;;;;;;;;;19.82;65.16;100247.13;4980529;28;2359;-95
2022/06/25 05:59:51;;;;;;;;;;;;;;;19.82;65.03;100252.59;4978502;28;2394;-96
2022/06/25 06:02:18;;;;;;;;;;;;;;;19.82;65.07;100255.31;4979611;28;2509;-96
2022/06/25 06:04:44;;;;;;;;;;;;;;;19.81;64.93;100261.91;4979057;28;2245;-94
2022/06/25 06:07:11;;;;;;;;;;;;;;;19.83;65.31;100267.91;4966487;28;2353;-96
2022/06/25 06:09:38;;;;;;;;;;;;;;;19.82;65.00;100264.31;4974953;28;1251;-96
2022/06/25 06:12:04;;;;;;;;;;;;;;;19.82;65.19;100261.59;4981051;28;1376;-94
2022/06/25 06:14:30;;;;;;;;;;;;;;;19.83;65.04;100265.16;4976076;28;2247;-96
2022/06/25 06:16:57;;;;;;;;;;;;;;;19.83;64.91;100267.91;4967581;28;2375;-96
2022/06/25 06:19:23;;;;;;;;;;;;;;;19.83;65.07;100270.63;4976473;28;1383;-94
2022/06/25 06:21:50;;;;;;;;;;;;;;;19.82;65.07;100269.78;4978980;28;1293;-96
2022/06/25 06:24:16;;;;;;;;;;;;;;;19.83;64.91;100278.81;4976953;28;2406;-96
2022/06/25 06:26:43;;;;;;;;;;;;;;;19.82;65.05;100280.72;4967559;28;1331;-96
2022/06/25 06:29:09;;;;;;;;;;;;;;;19.82;65.02;100274.44;4968593;28;2856;-96
2022/06/25 06:31:36;;;;;;;;;;;;;;;19.83;65.15;100281.56;4971080;28;3140;-96
2022/06/25 06:34:02;;;;;;;;;;;;;;;19.83;64.91;100270.63;4966846;28;2344;-96
2022/06/25 06:36:28;;;;;;;;;;;;;;;19.82;64.95;100275.25;4979533;28;2334;-96
2022/06/25 06:38:55;;;;;;;;;;;;;;;19.82;64.99;100280.72;4979349;28;2126;-96
2022/06/25 06:41:21;;;;;;;;;;;;;;;19.82;65.31;100275.25;4971637;28;2356;-94
2022/06/25 06:43:48;;;;;;;;;;;;;;;19.83;64.90;100270.63;4978825;28;2149;-96
2022/06/25 06:46:14;;;;;;;;;;;;;;;19.82;65.00;100271.72;4977819;28;1152;-96
2022/06/25 06:48:40;;;;;;;;;;;;;;;19.82;64.96;100268.97;4971653;28;1248;-95
2022/06/25 06:51:07;;;;;;;;;;;;;;;19.83;65.22;100271.44;4973704;28;2276;-96
2022/06/25 06:53:33;;;;;;;;;;;;;;;19.83;65.28;100273.34;4974650;28;2388;-96
2022/06/25 06:56:00;;;;;;;;;;;;;;;19.83;64.96;100270.63;4979745;28;1906;-95
2022/06/25 06:58:27;;;;;;;;;;;;;;;19.82;64.91;100275.25;4980238;28;1307;-96
2022/06/25 07:00:53;;;;;;;;;;;;;;;19.83;65.04;100273.34;4973354;28;3961;-95
2022/06/25 07:03:20;;;;;;;;;;;;;;;19.83;64.96;100274.16;4979432;28;1175;-95
2022/06/25 07:05:46;;;;;;;;;;;;;;;19.84;65.13;100266.78;4973466;28;3891;-95
2022/06/25 07:08:13;;;;;;;;;;;;;;;19.83;64.97;100271.44;4973897;28;2477;-95
2022/06/25 07:10:39;;;;;;;;;;;;;;;19.84;65.16;100264.03;4980938;28;3788;-96
2022/06/25 07:13:06;;;;;;;;;;;;;;;19.83;64.89;100265.97;4976737;28;2225;-96
2022/06/25 07:15:32;;;;;;;;;;;;;;;19.83;64.86;100263.25;4969481;28;3405;-95
2022/06/25 07:17:58;;;;;;;;;;;;;;;19.84;65.17;100262.13;4988542;28;2311;-95
2022/06/25 07:20:25;;;;;;;;;;;;;;;19.84;64.98;100266.78;4976701;28;2509;-96
2022/06/25 07:22:51;;;;;;;;;;;;;;;19.85;65.22;100269.22;4984827;28;2643;-96
2022/06/25 07:25:18;;;;;;;;;;;;;;;19.84;65.26;100267.59;4962773;28;4721;-95
2022/06/25 07:27:46;;;;;;;;;;;;;;;19.85;65.26;100261.00;4975581;28;2320;-96
2022/06/25 07:30:12;;;;;;;;;;;;;;;19.85;65.11;100263.75;4976387;28;2408;-96
2022/06/25 07:32:38;;;;;;;;;;;;;;;19.86;64.86;100268.13;4975853;28;3799;-96
2022/06/25 07:35:05;;;;;;;;;;;;;;;19.86;65.02;100264.59;4977068;28;3722;-95
2022/06/25 07:37:31;;;;;;;;;;;;;;;19.86;64.92;100267.31;4978505;28;3819;-96
2022/06/25 07:39:58;;;;;;;;;;;;;;;19.86;64.91;100261.84;4975333;28;3820;-95
2022/06/25 07:42:24;;;;;;;;;;;;;;;19.87;65.02;100274.41;4973498;28;3979;-96
2022/06/25 07:44:51;;;;;;;;;;;;;;;19.87;65.11;100274.41;4970893;28;3912;-95
2022/06/25 07:47:17;;;;;;;;;;;;;;;19.87;64.77;100280.69;4973688;28;4227;-95
2022/06/25 07:52:28;;;;;;;;;;;;;;;19.87;65.15;100280.69;4974553;28;2292;-95
2022/06/25 07:54:54;;;;;;;;;;;;;;;19.88;64.87;100284.22;4978614;28;1270;-95
2022/06/25 07:57:20;;;;;;;;;;;;;;;19.88;64.76;100296.00;4978356;28;1914;-95
2022/06/25 07:59:47;;;;;;;;;;;;;;;19.90;65.21;100298.41;4975208;28;3836;-95
2022/06/25 08:02:13;;;;;;;;;;;;;;;19.90;64.94;100301.16;4973150;28;3755;-95
2022/06/25 08:04:39;;;;;;;;;;;;;;;19.91;64.89;100302.78;4988079;28;1272;-95
2022/06/25 08:07:06;;;;;;;;;;;;;;;19.91;64.87;100297.31;4978904;28;1365;-95
2022/06/25 08:09:34;;;;;;;;;;;;;;;19.91;65.12;100298.16;4977127;28;2428;-95
2022/06/25 08:12:00;;;;;;;;;;;;;;;19.93;64.85;100297.84;4975382;28;1251;-95
2022/06/25 08:14:26;;;;;;;;;;;;;;;19.93;64.95;100295.09;4968818;28;2309;-95
2022/06/25 08:16:53;;;;;;;;;;;;;;;19.93;64.79;100295.09;4977705;28;1914;-96
2022/06/25 08:19:21;;;;;;;;;;;;;;;19.94;65.12;100291.25;4988574;28;3769;-95
2022/06/25 08:21:48;;;;;;;;;;;;;;;19.94;64.81;100291.25;4972354;28;2384;-96
2022/06/25 08:24:14;;;;;;;;;;;;;;;19.95;64.68;100293.72;4975158;28;4089;-96
2022/06/25 08:26:40;;;;;;;;;;;;;;;19.96;64.80;100297.25;4978817;28;1273;-96
2022/06/25 08:29:07;;;;;;;;;;;;;;;19.96;64.77;100297.25;4972645;28;3759;-95
2022/06/25 08:31:33;;;;;;;;;;;;;;;19.96;64.85;100300.81;4976200;28;2355;-95
2022/06/25 08:33:59;;;;;;;;;;;;;;;19.98;64.79;100300.53;4974097;28;2468;-95
2022/06/25 08:36:26;;;;;;;;;;;;;;;19.99;64.90;100304.06;4969708;28;2422;-95
2022/06/25 08:38:52;;;;;;;;;;;;;;;19.98;64.79;100303.25;4968989;28;3396;-96
2022/06/25 08:41:19;;;;;;;;;;;;;;;20.00;64.83;100303.81;4972193;28;2579;-95
2022/06/25 08:43:45;;;;;;;;;;;;;;;19.99;64.81;100299.41;4976142;28;2390;-95
2022/06/25 08:46:11;;;;;;;;;;;;;;;20.00;64.99;100308.44;4967182;28;2428;-95
2022/06/25 08:48:38;;;;;;;;;;;;;;;20.01;65.01;100312.81;4985642;28;2754;-94
2022/06/25 08:51:04;;;;;;;;;;;;;;;20.01;64.93;100315.53;4971530;28;2405;-94
2022/06/25 08:53:31;;;;;;;;;;;;;;;20.01;65.16;100312.81;4971726;28;2605;-94
2022/06/25 08:55:57;;;;;;;;;;;;;;;20.01;65.06;100313.63;4983539;28;2453;-94
2022/06/25 08:58:24;;;;;;;;;;;;;;;20.02;65.04;100317.16;4970610;28;2514;-94
2022/06/25 09:00:50;;;;;;;;;;;;;;;20.03;64.93;100318.78;4963600;28;4341;-93
2022/06/25 09:03:16;;;;;;;;;;;;;;;20.03;64.92;100326.97;4969168;28;2407;-94
2022/06/25 09:05:43;;;;;;;;;;;;;;;20.03;64.75;100322.34;4989954;28;3704;-94
2022/06/25 09:08:09;;;;;;;;;;;;;;;20.04;65.02;100323.97;4971580;28;2323;-93
2022/06/25 09:10:35;;;;;;;;;;;;;;;20.05;64.92;100328.31;4983551;28;2410;-93
2022/06/25 09:13:02;;;;;;;;;;;;;;;20.05;64.84;100335.72;4968546;28;2382;-93
2022/06/25 09:15:28;;;;;;;;;;;;;;;20.04;65.07;100334.91;4981445;28;2476;-94
2022/06/25 09:17:54;;;;;;;;;;;;;;;20.06;65.03;100327.25;4965017;28;2602;-94
2022/06/25 09:20:21;;;;;;;;;;;;;;;20.07;64.88;100323.41;4966876;28;2479;-94
2022/06/25 09:22:47;;;;;;;;;;;;;;;20.06;64.79;100338.19;4966935;28;2423;-94
2022/06/25 09:25:13;;;;;;;;;;;;;;;20.09;64.81;100336.75;4969217;28;2378;-95
2022/06/25 09:27:40;;;;;;;;;;;;;;;20.08;65.02;100335.94;4970970;28;2422;-95
2022/06/25 09:30:08;;;;;;;;;;;;;;;20.09;64.82;100332.13;4970123;28;2720;-95
2022/06/25 09:32:34;;;;;;;;;;;;;;;20.10;64.74;100332.94;4970565;28;2460;-95
2022/06/25 09:35:01;;;;;;;;;;;;;;;20.11;64.80;100337.28;4986494;28;2411;-94
2022/06/25 09:37:27;;;;;;;;;;;;;;;20.10;64.75;100339.22;4974521;28;2360;-95
2022/06/25 09:39:54;;;;;;;;;;;;;;;20.12;64.70;100342.50;4969841;28;2418;-94
2022/06/25 09:42:20;;;;;;;;;;;;;;;20.13;64.91;100346.03;4989414;28;2401;-95
2022/06/25 09:44:47;;;;;;;;;;;;;;;20.13;64.83;100344.13;4972803;28;2585;-94
2022/06/25 09:47:13;;;;;;;;;;;;;;;20.14;64.76;100347.66;4985252;28;2390;-95
2022/06/25 09:49:40;;;;;;;;;;;;;;;20.15;65.07;100352.03;4972533;28;2423;-94
2022/06/25 09:52:06;;;;;;;;;;;;;;;20.15;64.77;100355.59;4969392;28;2381;-95
2022/06/25 09:54:33;;;;;;;;;;;;;;;20.15;64.78;100343.84;4974897;28;2690;-94
2022/06/25 09:56:59;;;;;;;;;;;;;;;20.16;64.85;100346.25;4984555;28;3629;-95
2022/06/25 09:59:26;;;;;;;;;;;;;;;20.17;64.91;100342.41;4982598;28;2348;-95
2022/06/25 10:01:52;;;;;;;;;;;;;;;20.18;64.93;100341.34;4986089;28;2354;-95
2022/06/25 10:04:20;;;;;;;;;;;;;;;20.19;64.83;100350.34;4973082;28;2713;-95
2022/06/25 10:06:46;;;;;;;;;;;;;;;20.19;64.82;100348.41;4989048;28;2707;-94
2022/06/25 10:09:13;;;;;;;;;;;;;;;20.21;64.94;100345.41;4987331;28;2597;-95
2022/06/25 10:11:39;;;;;;;;;;;;;;;20.22;65.03;100349.78;4989548;28;2627;-94
2022/06/25 10:14:06;;;;;;;;;;;;;;;20.22;65.02;100338.84;4975968;28;1486;-94
2022/06/25 10:16:32;;;;;;;;;;;;;;;20.23;64.87;100339.63;4971848;28;2293;-96
2022/06/25 10:18:58;;;;;;;;;;;;;;;20.23;65.06;100336.91;4976805;28;2348;-95
2022/06/25 10:21:25;;;;;;;;;;;;;;;20.24;64.77;100341.28;4993084;28;2327;-95
2022/06/25 10:23:51;;;;;;;;;;;;;;;20.25;65.17;100340.19;4985417;28;2427;-95
2022/06/25 10:26:17;;;;;;;;;;;;;;;20.25;64.96;100342.91;4972431;28;2403;-95
2022/06/25 10:28:45;;;;;;;;;;;;;;;20.27;65.17;100348.91;4973443;28;2664;-94
2022/06/25 10:31:12;;;;;;;;;;;;;;;20.27;65.16;100347.00;4973826;28;3639;-94
2022/06/25 10:33:40;;;;;;;;;;;;;;;20.28;65.08;100350.53;4973603;28;2348;-94
2022/06/25 10:36:07;;;;;;;;;;;;;;;20.29;64.88;100352.16;4971214;28;2307;-95
2022/06/25 10:38:34;;;;;;;;;;;;;;;20.30;65.33;100351.88;4979449;28;2596;-94
2022/06/25 10:42:58;;;;;;;;;;;;;;;20.30;65.01;100342.88;4980448;28;1364;-95
2022/06/25 10:43:45;;;;;;;;;;;;;;;20.32;65.27;100351.56;4972464;28;2534;-95
2022/06/25 10:46:12;;;;;;;;;;;;;;;20.32;65.02;100346.09;4972847;28;2213;-95
2022/06/25 10:48:38;;;;;;;;;;;;;;;20.34;65.22;100343.91;4980079;28;1464;-95
2022/06/25 10:51:05;;;;;;;;;;;;;;;20.34;65.22;100344.72;4978825;28;2743;-94
2022/06/25 10:53:31;;;;;;;;;;;;;;;20.34;65.19;100350.19;4979780;28;2379;-95
2022/06/25 10:55:58;;;;;;;;;;;;;;;20.36;65.23;100347.97;4971880;28;2407;-95
2022/06/25 10:58:24;;;;;;;;;;;;;;;20.36;65.26;100344.44;4972913;28;2411;-95
2022/06/25 11:00:50;;;;;;;;;;;;;;;20.38;65.25;100351.25;4973362;28;2368;-94
2022/06/25 11:03:17;;;;;;;;;;;;;;;20.39;65.33;100354.78;4973819;28;2443;-95
2022/06/25 11:05:43;;;;;;;;;;;;;;;20.39;65.07;100349.31;4985068;28;2700;-95
2022/06/25 11:08:10;;;;;;;;;;;;;;;20.41;65.52;100349.84;4973656;28;2382;-95
2022/06/25 11:10:36;;;;;;;;;;;;;;;20.41;65.46;100356.13;4982505;28;3562;-96
2022/06/25 11:13:03;;;;;;;;;;;;;;;20.43;65.46;100344.91;4986637;28;2403;-96
2022/06/25 11:15:29;;;;;;;;;;;;;;;20.43;65.41;100353.09;4969150;28;2413;-95
2022/06/25 11:17:56;;;;;;;;;;;;;;;20.45;65.47;100350.09;4983702;28;2687;-96
2022/06/25 11:20:22;;;;;;;;;;;;;;;20.45;65.45;100348.16;4985221;28;2682;-95
2022/06/25 11:22:49;;;;;;;;;;;;;;;20.48;65.59;100352.25;4976860;28;2758;-96
2022/06/25 11:30:43;;;;;;;;;;;;;;;20.50;65.36;100353.59;4967996;28;2384;-95
2022/06/25 11:33:10;;;;;;;;;;;;;;;20.51;65.43;100362.59;4970409;28;2393;-95
2022/06/25 11:35:36;;;;;;;;;;;;;;;20.52;65.52;100358.75;4967146;28;3328;-95
2022/06/25 11:38:02;;;;;;;;;;;;;;;20.53;65.73;100352.19;4981273;28;2608;-96
2022/06/25 11:40:29;;;;;;;;;;;;;;;20.54;65.34;100353.84;4978971;28;2444;-95
2022/06/25 11:42:55;;;;;;;;;;;;;;;20.55;65.36;100364.47;4972434;28;2365;-95
2022/06/25 11:45:21;;;;;;;;;;;;;;;20.56;65.54;100352.44;4977954;28;2489;-95
2022/06/25 11:47:48;;;;;;;;;;;;;;;20.57;65.52;100353.25;4979140;28;1158;-96
2022/06/25 11:50:14;;;;;;;;;;;;;;;20.58;65.57;100355.69;4974977;28;2395;-96
2022/06/25 11:52:42;;;;;;;;;;;;;;;20.59;65.62;100346.41;4970700;28;2343;-95
2022/06/25 11:55:09;;;;;;;;;;;;;;;20.60;65.61;100348.00;4971466;28;2305;-96
2022/06/25 11:57:35;;;;;;;;;;;;;;;20.62;65.63;100361.41;4966750;28;2340;-96
2022/06/25 12:00:02;;;;;;;;;;;;;;;20.63;65.71;100360.31;4965239;28;4259;-96
2022/06/25 12:02:29;;;;;;;;;;;;;;;20.63;65.92;100357.56;4974004;28;2425;-96
2022/06/25 12:04:56;;;;;;;;;;;;;;;20.64;65.68;100354.53;4974030;28;2447;-96
2022/06/25 12:07:22;;;;;;;;;;;;;;;20.67;65.88;100352.31;4973918;28;2660;-96
2022/06/25 12:09:49;;;;;;;;;;;;;;;20.66;65.85;100362.44;4973412;28;2436;-95
2022/06/25 12:12:17;;;;;;;;;;;;;;;20.68;65.86;100368.47;4989548;28;2505;-96
2022/06/25 12:14:43;;;;;;;;;;;;;;;20.70;65.96;100368.16;4976109;28;2359;-96
2022/06/25 12:17:10;;;;;;;;;;;;;;;20.71;65.91;100367.06;4989147;28;2756;-96
2022/06/25 12:19:37;;;;;;;;;;;;;;;20.73;65.88;100367.56;4987206;28;2516;-96
2022/06/25 12:22:03;;;;;;;;;;;;;;;20.73;66.03;100373.03;4971031;28;2368;-93
2022/06/25 12:24:29;;;;;;;;;;;;;;;20.74;65.87;100367.28;4985872;28;2422;-94
2022/06/25 12:26:56;;;;;;;;;;;;;;;20.76;65.88;100372.44;4984384;28;2270;-93
2022/06/25 12:29:22;;;;;;;;;;;;;;;20.77;65.99;100379.56;4973140;28;2435;-94
2022/06/25 12:31:49;;;;;;;;;;;;;;;20.78;65.90;100372.97;4985513;28;2395;-94
2022/06/25 12:34:15;;;;;;;;;;;;;;;20.79;66.03;100372.69;4971445;28;3386;-94
2022/06/25 12:36:41;;;;;;;;;;;;;;;20.80;66.21;100377.06;4974033;28;2329;-95
2022/06/25 12:39:08;;;;;;;;;;;;;;;20.82;65.97;100379.50;4986067;28;2294;-93
2022/06/25 12:41:34;;;;;;;;;;;;;;;20.82;65.98;100377.59;4977435;28;2150;-94
2022/06/25 12:44:00;;;;;;;;;;;;;;;20.83;66.06;100390.16;4963562;28;3402;-94
2022/06/25 12:46:27;;;;;;;;;;;;;;;20.85;66.13;100387.13;4969683;28;2712;-93
2022/06/25 12:48:54;;;;;;;;;;;;;;;20.86;66.30;100396.97;4967809;28;2626;-93
2022/06/25 12:51:20;;;;;;;;;;;;;;;20.88;66.09;100397.47;4972887;28;2352;-94
2022/06/25 12:53:46;;;;;;;;;;;;;;;20.88;66.28;100402.94;4986403;28;3883;-93
2022/06/25 12:56:13;;;;;;;;;;;;;;;20.91;66.22;100404.28;4978461;28;1419;-93
2022/06/25 12:58:39;;;;;;;;;;;;;;;20.91;66.30;100409.78;4974933;28;2467;-92